Time;durP1;ratioP1;P1;durP2;ratioP2;P2;SDS_P1;SDS_P2;PMS_P1;PMS_P2;Temp;Humidity;BMP_temperature;BMP_pressure;BME280_temperature;BME280_humidity;BME280_pressure;Samples;Min_cycle;Max_cycle;Signal;HPM_P1;HPM_P2
2022/04/14 00:00:21;;;;;;;44.63;30.40;;;13.90;99.90;;;;;;2615169;47;20205;-77
2022/04/14 00:02:46;;;;;;;40.40;29.90;;;13.80;99.90;;;;;;2615713;46;20392;-77
2022/04/14 00:05:12;;;;;;;38.37;27.13;;;13.80;99.90;;;;;;2614943;39;20578;-78
2022/04/14 00:07:39;;;;;;;30.47;24.20;;;13.70;99.90;;;;;;2616665;54;20174;-77
2022/04/14 00:10:06;;;;;;;33.73;25.53;;;13.70;99.90;;;;;;2616508;54;20178;-76
2022/04/14 00:12:32;;;;;;;27.73;20.67;;;13.60;99.90;;;;;;2615486;47;20508;-81
2022/04/14 00:14:58;;;;;;;33.93;23.37;;;13.50;99.90;;;;;;2615699;46;20880;-76
2022/04/14 00:17:24;;;;;;;26.93;20.10;;;13.50;99.90;;;;;;2614902;47;20317;-78
2022/04/14 00:19:50;;;;;;;24.93;19.27;;;13.60;99.90;;;;;;2615726;54;20416;-77
2022/04/14 00:22:16;;;;;;;23.40;18.50;;;13.80;99.90;;;;;;2614977;54;20535;-77
2022/04/14 00:24:42;;;;;;;25.80;19.27;;;13.70;99.90;;;;;;2615041;47;20531;-77
2022/04/14 00:27:08;;;;;;;22.30;18.17;;;13.70;99.90;;;;;;2615209;54;20395;-76
2022/04/14 00:29:34;;;;;;;23.43;17.93;;;13.60;99.90;;;;;;2615521;39;20585;-77
2022/04/14 00:32:00;;;;;;;21.30;17.23;;;13.50;99.90;;;;;;2616109;54;20416;-76
2022/04/14 00:34:25;;;;;;;25.37;17.13;;;13.50;99.90;;;;;;2616145;54;20522;-77
2022/04/14 00:36:51;;;;;;;30.23;16.60;;;13.40;99.90;;;;;;2614786;54;20547;-76
2022/04/14 00:39:17;;;;;;;21.50;15.60;;;13.30;99.90;;;;;;2616058;54;20256;-76
2022/04/14 00:41:43;;;;;;;21.30;15.67;;;13.30;99.90;;;;;;2615616;54;20666;-76
2022/04/14 00:44:09;;;;;;;23.30;15.63;;;13.30;99.90;;;;;;2615616;54;20583;-77
2022/04/14 00:46:35;;;;;;;18.33;15.23;;;13.20;99.90;;;;;;2614978;47;20151;-77
2022/04/14 00:49:00;;;;;;;19.03;14.13;;;13.20;99.90;;;;;;2615673;54;20185;-78
2022/04/14 00:51:26;;;;;;;17.77;11.67;;;13.30;99.90;;;;;;2615773;54;20147;-76
2022/04/14 00:53:53;;;;;;;24.07;13.40;;;13.20;99.90;;;;;;2615568;54;20271;-76
2022/04/14 00:56:19;;;;;;;16.03;11.83;;;13.20;99.90;;;;;;2615308;54;20181;-76
2022/04/14 00:58:45;;;;;;;15.67;11.40;;;13.10;99.90;;;;;;2615534;46;20416;-77
2022/04/14 01:01:12;;;;;;;17.63;11.53;;;13.10;99.90;;;;;;2614534;54;20170;-75
2022/04/14 01:03:40;;;;;;;14.40;10.17;;;12.90;99.90;;;;;;2616351;54;20421;-75
2022/04/14 01:06:08;;;;;;;10.67;8.70;;;13.00;99.90;;;;;;2615832;54;20420;-75
2022/04/14 01:08:37;;;;;;;10.50;7.87;;;13.30;99.90;;;;;;2616509;54;20478;-74
2022/04/14 01:11:04;;;;;;;12.30;8.60;;;13.30;99.90;;;;;;2615269;47;20476;-74
2022/04/14 01:13:29;;;;;;;12.53;10.60;;;13.00;99.90;;;;;;2616445;39;20833;-76
2022/04/14 01:15:58;;;;;;;14.87;10.87;;;12.90;99.90;;;;;;2615528;47;20403;-74
2022/04/14 01:18:25;;;;;;;15.37;11.80;;;12.90;99.90;;;;;;2615518;54;20254;-74
2022/04/14 01:20:51;;;;;;;14.53;11.50;;;13.00;99.90;;;;;;2615265;47;20946;-74
2022/04/14 01:23:23;;;;;;;14.50;12.60;;;12.90;99.90;;;;;;2615630;47;20419;-74
2022/04/14 01:25:49;;;;;;;18.60;11.37;;;12.90;99.90;;;;;;2615761;54;20412;-76
2022/04/14 01:28:17;;;;;;;16.80;11.47;;;12.90;99.90;;;;;;2615319;54;20959;-74
2022/04/14 01:30:44;;;;;;;13.53;10.30;;;13.00;99.90;;;;;;2615360;54;20915;-76
2022/04/14 01:33:10;;;;;;;17.83;10.87;;;12.90;99.90;;;;;;2616039;54;20423;-74
2022/04/14 01:35:37;;;;;;;14.30;11.40;;;12.90;99.90;;;;;;2615559;54;21019;-74
2022/04/14 01:38:03;;;;;;;15.20;12.00;;;12.90;99.90;;;;;;2615605;47;20162;-73
2022/04/14 01:40:29;;;;;;;13.27;11.87;;;12.80;99.90;;;;;;2614945;47;20511;-77
2022/04/14 01:42:54;;;;;;;18.13;12.67;;;12.80;99.90;;;;;;2615422;54;20662;-75
2022/04/14 01:45:20;;;;;;;20.20;14.30;;;12.90;99.90;;;;;;2615080;47;20205;-75
2022/04/14 01:47:47;;;;;;;19.07;14.97;;;12.90;99.90;;;;;;2615204;47;20678;-75
2022/04/14 01:50:14;;;;;;;19.90;14.50;;;12.90;99.90;;;;;;2615094;54;21018;-75
2022/04/14 01:52:44;;;;;;;22.13;15.30;;;12.80;99.90;;;;;;2615191;46;20457;-74
2022/04/14 01:55:10;;;;;;;28.93;15.40;;;12.80;99.90;;;;;;2616261;54;20391;-74
2022/04/14 01:57:36;;;;;;;20.70;14.17;;;12.70;99.90;;;;;;2616512;39;20956;-76
2022/04/14 02:00:06;;;;;;;22.97;14.20;;;12.70;99.90;;;;;;2615810;54;20430;-75
2022/04/14 02:02:34;;;;;;;20.70;12.60;;;12.70;99.90;;;;;;2615240;54;20161;-75
2022/04/14 02:05:00;;;;;;;17.57;13.73;;;12.60;99.90;;;;;;2615218;54;20440;-74
2022/04/14 02:07:26;;;;;;;18.53;16.60;;;12.60;99.90;;;;;;2615706;47;20559;-75
2022/04/14 02:09:53;;;;;;;30.30;20.30;;;12.70;99.90;;;;;;2615847;54;21041;-75
2022/04/14 02:12:19;;;;;;;21.67;15.70;;;12.60;99.90;;;;;;2615509;54;20142;-75
2022/04/14 02:14:44;;;;;;;21.70;18.33;;;12.60;99.90;;;;;;2615502;54;20454;-77
2022/04/14 02:17:10;;;;;;;25.67;17.10;;;12.60;99.90;;;;;;2615486;54;20178;-74
2022/04/14 02:19:36;;;;;;;25.80;18.07;;;12.60;99.90;;;;;;2615557;54;20185;-74
2022/04/14 02:22:02;;;;;;;33.60;20.43;;;12.70;99.90;;;;;;2615629;54;20155;-74
2022/04/14 02:24:28;;;;;;;30.93;21.57;;;12.80;99.90;;;;;;2616135;54;20139;-75
2022/04/14 02:26:55;;;;;;;31.20;20.47;;;12.70;99.90;;;;;;2615432;47;20964;-75
2022/04/14 02:29:21;;;;;;;35.37;20.77;;;12.80;99.90;;;;;;2616187;54;21000;-74
2022/04/14 02:31:47;;;;;;;27.70;19.77;;;12.80;99.90;;;;;;2615056;47;20421;-75
2022/04/14 02:34:13;;;;;;;26.17;20.47;;;12.90;99.90;;;;;;2615560;54;20159;-75
2022/04/14 02:36:39;;;;;;;30.77;19.90;;;12.80;99.90;;;;;;2614975;54;20423;-75
2022/04/14 02:39:04;;;;;;;30.83;20.90;;;12.80;99.90;;;;;;2616291;39;20821;-74
2022/04/14 02:41:30;;;;;;;29.13;19.57;;;12.80;99.90;;;;;;2615750;54;20143;-76
2022/04/14 02:43:56;;;;;;;27.60;21.73;;;12.80;99.90;;;;;;2614836;47;20459;-77
2022/04/14 02:46:22;;;;;;;29.97;20.47;;;12.70;99.90;;;;;;2616024;54;20155;-77
2022/04/14 02:48:48;;;;;;;35.07;22.30;;;12.70;99.90;;;;;;2615553;54;20155;-73
2022/04/14 02:51:14;;;;;;;30.73;21.97;;;12.70;99.90;;;;;;2615640;54;20159;-75
2022/04/14 02:53:40;;;;;;;35.60;23.60;;;12.60;99.90;;;;;;2616077;54;20258;-73
2022/04/14 02:56:07;;;;;;;36.23;23.47;;;12.60;99.90;;;;;;2614902;54;20438;-76
2022/04/14 02:58:33;;;;;;;35.93;25.30;;;12.70;99.90;;;;;;2614636;47;20423;-76
2022/04/14 03:00:59;;;;;;;37.90;25.90;;;12.80;99.90;;;;;;2613682;47;20274;-76
2022/04/14 03:03:26;;;;;;;36.03;23.50;;;12.60;99.90;;;;;;2614789;54;20955;-75
2022/04/14 03:05:52;;;;;;;40.73;25.87;;;12.60;99.90;;;;;;2615055;54;20186;-77
2022/04/14 03:08:18;;;;;;;37.87;26.10;;;12.70;99.90;;;;;;2614866;54;20492;-76
2022/04/14 03:10:44;;;;;;;42.77;26.40;;;12.60;99.90;;;;;;2614951;54;20722;-75
2022/04/14 03:13:11;;;;;;;43.50;26.97;;;12.50;99.90;;;;;;2615179;54;20415;-77
2022/04/14 03:15:37;;;;;;;38.73;28.20;;;12.40;99.90;;;;;;2614956;47;20451;-77
2022/04/14 03:18:03;;;;;;;45.93;28.03;;;12.40;99.90;;;;;;2614764;39;20898;-76
2022/04/14 03:20:29;;;;;;;39.67;25.00;;;12.50;99.90;;;;;;2614950;54;20158;-77
2022/04/14 03:22:56;;;;;;;38.93;28.60;;;12.50;99.90;;;;;;2614722;54;20438;-76
2022/04/14 03:25:21;;;;;;;35.17;25.80;;;12.50;99.90;;;;;;2615327;47;20414;-76
2022/04/14 03:27:47;;;;;;;39.70;27.77;;;12.50;99.90;;;;;;2615836;39;20798;-75
2022/04/14 03:30:13;;;;;;;42.47;24.27;;;12.60;99.90;;;;;;2615915;54;20415;-76
2022/04/14 03:32:41;;;;;;;41.60;25.50;;;12.50;99.90;;;;;;2615179;54;20162;-76
2022/04/14 03:35:07;;;;;;;38.03;25.73;;;12.50;99.90;;;;;;2616109;54;21096;-76
2022/04/14 03:37:33;;;;;;;42.97;24.70;;;12.40;99.90;;;;;;2616443;54;21071;-75
2022/04/14 03:39:59;;;;;;;35.23;23.20;;;12.30;99.90;;;;;;2616383;47;20410;-77
2022/04/14 03:42:26;;;;;;;37.97;25.17;;;12.40;99.90;;;;;;2617619;39;20391;-77
2022/04/14 03:44:52;;;;;;;34.90;24.43;;;12.30;99.90;;;;;;2615763;54;20186;-76
2022/04/14 03:47:18;;;;;;;36.17;23.20;;;12.40;99.90;;;;;;2615672;47;20483;-75
2022/04/14 03:49:44;;;;;;;35.77;25.83;;;12.30;99.90;;;;;;2615475;47;20174;-75
2022/04/14 03:52:10;;;;;;;40.30;23.77;;;12.30;99.90;;;;;;2614970;54;20506;-78
2022/04/14 03:54:35;;;;;;;34.30;23.27;;;12.40;99.90;;;;;;2614342;54;20161;-78
2022/04/14 03:57:01;;;;;;;34.50;24.10;;;12.50;99.90;;;;;;2614387;39;20830;-76
2022/04/14 03:59:27;;;;;;;31.00;24.53;;;12.40;99.90;;;;;;2614681;54;20155;-76
2022/04/14 04:01:53;;;;;;;30.90;23.00;;;12.50;99.90;;;;;;2614719;47;20155;-75
2022/04/14 04:04:19;;;;;;;33.87;24.00;;;12.60;99.90;;;;;;2615097;47;20701;-77
2022/04/14 04:06:46;;;;;;;42.47;25.83;;;12.50;99.90;;;;;;2615833;54;20717;-78
2022/04/14 04:09:13;;;;;;;41.90;28.17;;;12.40;99.90;;;;;;2617221;54;20426;-75
2022/04/14 04:11:39;;;;;;;45.87;26.63;;;12.50;99.90;;;;;;2615494;54;20414;-76
2022/04/14 04:14:07;;;;;;;37.57;24.93;;;12.50;99.90;;;;;;2616489;54;20423;-77
2022/04/14 04:16:33;;;;;;;42.93;27.03;;;12.60;99.90;;;;;;2615663;47;20162;-77
2022/04/14 04:18:59;;;;;;;33.07;24.40;;;12.60;99.90;;;;;;2616434;54;21017;-77
2022/04/14 04:21:29;;;;;;;36.57;24.03;;;12.50;99.90;;;;;;2616380;54;20467;-75
2022/04/14 04:23:55;;;;;;;43.40;24.70;;;12.60;99.90;;;;;;2615932;47;20163;-75
2022/04/14 04:26:22;;;;;;;43.63;26.07;;;12.40;99.90;;;;;;2616475;39;20895;-76
2022/04/14 04:28:48;;;;;;;38.50;24.50;;;12.50;99.90;;;;;;2615230;54;20421;-76
2022/04/14 04:31:13;;;;;;;41.13;24.43;;;12.60;99.90;;;;;;2615227;47;20427;-76
2022/04/14 04:33:39;;;;;;;33.17;23.47;;;12.70;99.90;;;;;;2615368;54;20151;-76
2022/04/14 04:36:06;;;;;;;40.20;26.23;;;12.70;99.90;;;;;;2615261;54;20177;-75
2022/04/14 04:38:32;;;;;;;35.17;24.73;;;12.70;99.90;;;;;;2615061;54;20194;-76
2022/04/14 04:40:59;;;;;;;35.63;25.60;;;12.60;99.90;;;;;;2614959;54;20959;-76
2022/04/14 04:43:25;;;;;;;37.93;24.67;;;12.70;99.90;;;;;;2615291;47;20214;-76
2022/04/14 04:45:51;;;;;;;41.73;25.63;;;12.70;99.90;;;;;;2614847;54;20400;-75
2022/04/14 04:48:17;;;;;;;42.57;28.50;;;12.70;99.90;;;;;;2614508;54;20458;-77
2022/04/14 04:50:43;;;;;;;40.67;24.80;;;12.70;99.90;;;;;;2615691;54;20153;-75
2022/04/14 04:53:08;;;;;;;35.17;25.20;;;12.60;99.90;;;;;;2615169;47;20181;-76
2022/04/14 04:55:34;;;;;;;38.93;24.80;;;12.50;99.90;;;;;;2616002;54;20174;-75
2022/04/14 04:58:01;;;;;;;37.07;25.47;;;12.50;99.90;;;;;;2615614;39;20266;-76
2022/04/14 05:00:29;;;;;;;39.53;25.77;;;12.50;99.90;;;;;;2615322;54;20499;-75
2022/04/14 05:02:56;;;;;;;35.80;27.13;;;12.50;99.90;;;;;;2614356;54;20955;-75
2022/04/14 05:05:24;;;;;;;47.10;31.33;;;12.60;99.90;;;;;;2615135;54;20438;-76
2022/04/14 05:07:50;;;;;;;46.80;30.87;;;12.60;99.90;;;;;;2616119;54;20424;-76
2022/04/14 05:10:17;;;;;;;40.47;29.03;;;12.70;99.90;;;;;;2615124;54;20407;-77
2022/04/14 05:12:43;;;;;;;53.23;30.63;;;12.60;99.90;;;;;;2615034;47;21022;-76
2022/04/14 05:15:09;;;;;;;48.63;29.67;;;12.60;99.90;;;;;;2615573;54;20424;-79
2022/04/14 05:17:36;;;;;;;46.53;31.73;;;12.50;99.90;;;;;;2616213;54;20853;-76
2022/04/14 05:20:03;;;;;;;49.57;31.40;;;12.60;99.90;;;;;;2616296;39;20879;-77
2022/04/14 05:22:28;;;;;;;44.80;29.87;;;12.70;99.90;;;;;;2615286;54;20454;-76
2022/04/14 05:24:55;;;;;;;48.53;29.90;;;12.80;99.90;;;;;;2616597;47;20419;-76
2022/04/14 05:27:22;;;;;;;49.97;29.97;;;12.80;99.90;;;;;;2614779;54;20254;-76
2022/04/14 05:29:47;;;;;;;41.50;26.60;;;12.80;99.90;;;;;;2615438;54;20831;-76
2022/04/14 05:32:13;;;;;;;39.10;28.30;;;12.80;99.90;;;;;;2615519;54;20401;-77
2022/04/14 05:34:39;;;;;;;50.87;31.33;;;12.80;99.90;;;;;;2614984;54;20251;-76
2022/04/14 05:37:05;;;;;;;42.23;29.63;;;12.90;99.90;;;;;;2614994;54;20154;-77
2022/04/14 05:39:32;;;;;;;43.13;29.37;;;13.00;99.90;;;;;;2614852;54;20162;-77
2022/04/14 05:41:59;;;;;;;33.53;25.80;;;13.10;99.90;;;;;;2614892;54;20150;-76
2022/04/14 05:44:24;;;;;;;44.53;27.90;;;13.00;99.90;;;;;;2614894;47;20460;-76
2022/04/14 05:47:14;;;;;;;39.97;28.50;;;13.10;99.90;;;;;;2613731;54;20416;-77
2022/04/14 05:49:41;;;;;;;37.00;27.30;;;13.00;99.90;;;;;;2613512;54;20159;-76
2022/04/14 05:52:07;;;;;;;39.70;28.03;;;12.90;99.90;;;;;;2613891;49;21042;-76
2022/04/14 05:54:36;;;;;;;44.33;30.40;;;13.00;99.90;;;;;;2612137;47;20419;-79
2022/04/14 05:59:43;;;;;;;42.00;30.13;;;13.00;99.90;;;;;;2614869;54;20411;-77
2022/04/14 06:02:12;;;;;;;49.80;31.53;;;13.10;99.90;;;;;;2611778;54;20420;-77
2022/04/14 06:04:38;;;;;;;43.40;28.43;;;13.00;99.90;;;;;;2612151;54;20185;-78
2022/04/14 06:07:04;;;;;;;42.70;28.47;;;13.00;99.90;;;;;;2613151;54;20404;-78
2022/04/14 06:09:30;;;;;;;42.43;30.70;;;13.00;99.90;;;;;;2611028;54;20194;-78
2022/04/14 06:11:56;;;;;;;42.17;29.40;;;13.10;99.90;;;;;;2614008;54;20396;-77
2022/04/14 06:14:22;;;;;;;43.67;30.10;;;13.00;99.90;;;;;;2613706;54;20411;-77
2022/04/14 06:16:49;;;;;;;44.30;29.53;;;13.10;99.90;;;;;;2614021;47;20989;-79
2022/04/14 06:19:15;;;;;;;46.73;32.30;;;12.90;99.90;;;;;;2613272;47;20418;-79
2022/04/14 06:21:41;;;;;;;37.87;28.97;;;12.90;99.90;;;;;;2613715;54;20469;-77
2022/04/14 06:24:07;;;;;;;41.00;30.40;;;13.00;99.90;;;;;;2613922;47;20447;-79
2022/04/14 06:26:34;;;;;;;45.83;31.80;;;13.00;99.90;;;;;;2614154;47;20297;-79
2022/04/14 06:29:23;;;;;;;50.40;31.30;;;13.00;99.90;;;;;;2614691;46;20180;-78
2022/04/14 06:31:49;;;;;;;43.70;30.80;;;13.10;99.90;;;;;;2613447;47;20431;-79
2022/04/14 06:34:15;;;;;;;44.10;32.70;;;13.10;99.90;;;;;;2614606;39;20484;-74
2022/04/14 06:36:40;;;;;;;47.57;33.47;;;13.10;99.90;;;;;;2612675;47;20266;-76
2022/04/14 06:39:12;;;;;;;47.67;33.80;;;13.20;99.90;;;;;;2614152;47;20750;-78
2022/04/14 06:41:39;;;;;;;48.47;34.57;;;13.20;99.90;;;;;;2613420;46;20190;-78
2022/04/14 06:44:06;;;;;;;55.93;39.20;;;13.20;99.90;;;;;;2614092;54;20428;-78
2022/04/14 06:46:32;;;;;;;52.43;35.33;;;13.30;99.90;;;;;;2613443;54;20962;-78
2022/04/14 06:48:58;;;;;;;53.00;34.17;;;13.30;99.90;;;;;;2613107;48;20499;-76
2022/04/14 06:51:24;;;;;;;49.90;34.47;;;13.40;99.90;;;;;;2612708;54;20143;-76
2022/04/14 06:53:50;;;;;;;46.13;31.70;;;13.60;99.90;;;;;;2612123;54;20507;-77
2022/04/14 06:56:16;;;;;;;52.67;36.10;;;13.60;99.90;;;;;;2612901;47;20257;-76
2022/04/14 06:58:42;;;;;;;50.30;34.50;;;13.70;99.90;;;;;;2612667;54;20194;-77
2022/04/14 07:01:08;;;;;;;46.17;34.30;;;13.80;99.90;;;;;;2612796;46;20181;-75
2022/04/14 07:03:35;;;;;;;43.23;33.73;;;13.80;99.90;;;;;;2611759;51;20525;-78
2022/04/14 07:06:01;;;;;;;49.23;35.57;;;13.80;99.90;;;;;;2610712;54;20395;-76
2022/04/14 07:08:27;;;;;;;46.87;33.83;;;14.00;99.90;;;;;;2613008;31;20877;-76
2022/04/14 07:10:55;;;;;;;46.47;33.90;;;14.00;99.90;;;;;;2612505;47;20258;-78
2022/04/14 07:13:20;;;;;;;45.63;32.00;;;14.00;99.90;;;;;;2612686;39;20839;-75
2022/04/14 07:15:46;;;;;;;47.90;33.80;;;14.00;99.90;;;;;;2612005;47;20428;-76
2022/04/14 07:18:12;;;;;;;44.80;33.50;;;14.00;99.90;;;;;;2612331;47;20181;-76
2022/04/14 07:20:38;;;;;;;50.20;32.23;;;14.20;99.90;;;;;;2612921;47;20178;-76
2022/04/14 07:23:05;;;;;;;50.43;34.27;;;14.30;99.90;;;;;;2613779;47;20185;-76
2022/04/14 07:25:33;;;;;;;49.70;33.57;;;14.10;99.90;;;;;;2613590;54;20408;-76
2022/04/14 07:28:00;;;;;;;49.43;34.90;;;14.20;99.90;;;;;;2613722;54;20591;-76
2022/04/14 07:30:26;;;;;;;42.63;32.57;;;14.30;99.90;;;;;;2613872;54;20428;-77
2022/04/14 07:32:53;;;;;;;53.70;37.73;;;14.40;99.90;;;;;;2613502;54;20412;-76
2022/04/14 07:35:23;;;;;;;45.00;35.87;;;14.60;99.90;;;;;;2614227;54;20459;-76
2022/04/14 07:37:49;;;;;;;55.93;33.87;;;14.70;99.90;;;;;;2613830;39;20792;-76
2022/04/14 07:40:15;;;;;;;48.23;34.97;;;14.90;99.90;;;;;;2614531;54;20416;-77
2022/04/14 07:42:43;;;;;;;50.13;36.47;;;14.80;99.90;;;;;;2614048;47;20428;-77
2022/04/14 07:45:11;;;;;;;58.63;38.03;;;14.80;99.90;;;;;;2614926;54;20450;-77
2022/04/14 07:47:41;;;;;;;50.67;35.40;;;14.90;99.90;;;;;;2614413;47;20456;-77
2022/04/14 07:50:07;;;;;;;52.83;39.00;;;14.90;99.90;;;;;;2614410;54;20411;-77
2022/04/14 07:52:56;;;;;;;55.37;39.30;;;15.10;99.90;;;;;;2615281;54;20395;-77
2022/04/14 07:55:30;;;;;;;54.37;36.87;;;15.50;99.90;;;;;;2615080;54;20927;-76
2022/04/14 07:57:58;;;;;;;47.43;36.00;;;15.90;99.90;;;;;;2614063;54;20952;-78
2022/04/14 08:00:26;;;;;;;46.77;38.10;;;16.60;99.90;;;;;;2614437;47;20515;-77
2022/04/14 08:03:00;;;;;;;42.63;33.30;;;17.20;99.90;;;;;;2614325;47;20410;-77
2022/04/14 08:05:30;;;;;;;44.73;34.40;;;17.50;99.90;;;;;;2615100;54;20416;-77
2022/04/14 08:07:56;;;;;;;39.87;31.87;;;17.70;99.90;;;;;;2615364;39;20833;-78
2022/04/14 08:10:22;;;;;;;40.40;30.97;;;18.00;99.90;;;;;;2614906;54;20440;-77
2022/04/14 08:12:48;;;;;;;37.40;30.70;;;18.30;99.90;;;;;;2614738;54;20930;-77
2022/04/14 08:15:14;;;;;;;47.70;35.00;;;18.30;99.90;;;;;;2614564;46;20175;-77
2022/04/14 08:17:41;;;;;;;39.60;30.47;;;18.60;99.90;;;;;;2614520;54;20435;-76
2022/04/14 08:20:09;;;;;;;44.77;34.07;;;18.80;99.90;;;;;;2614134;39;20980;-77
2022/04/14 08:22:47;;;;;;;41.80;36.23;;;19.00;99.90;;;;;;2615086;54;20379;-77
2022/04/14 08:25:20;;;;;;;40.67;34.87;;;19.40;99.90;;;;;;2615253;54;20418;-76
2022/04/14 08:27:47;;;;;;;41.47;35.77;;;19.70;99.90;;;;;;2614449;51;20423;-76
2022/04/14 08:30:14;;;;;;;47.40;36.97;;;20.00;99.90;;;;;;2614909;54;20463;-77
2022/04/14 08:32:40;;;;;;;41.37;36.63;;;20.30;99.90;;;;;;2614849;39;20808;-76
2022/04/14 08:35:07;;;;;;;40.47;36.03;;;20.90;99.90;;;;;;2614188;54;20411;-76
2022/04/14 08:37:34;;;;;;;41.63;36.30;;;20.90;99.90;;;;;;2614403;47;20522;-77
2022/04/14 08:40:00;;;;;;;43.90;36.07;;;20.90;99.90;;;;;;2614297;54;20406;-76
2022/04/14 08:42:31;;;;;;;40.93;36.67;;;20.70;99.90;;;;;;2614568;54;20542;-76
2022/04/14 08:45:02;;;;;;;43.53;35.43;;;20.50;99.90;;;;;;2614416;54;20427;-77
2022/04/14 08:47:31;;;;;;;37.87;33.70;;;20.20;99.90;;;;;;2614436;47;20957;-77
2022/04/14 08:49:58;;;;;;;44.40;36.40;;;20.00;99.90;;;;;;2614491;54;20418;-78
2022/04/14 08:52:26;;;;;;;43.60;35.33;;;20.30;99.90;;;;;;2614270;54;20998;-77
2022/04/14 08:54:55;;;;;;;39.47;34.67;;;20.30;99.90;;;;;;2614217;54;20469;-77
2022/04/14 08:57:25;;;;;;;43.00;33.87;;;20.80;99.90;;;;;;2614484;47;20443;-76
2022/04/14 08:59:51;;;;;;;43.30;35.67;;;20.60;99.90;;;;;;2632014;36;20477;-76
2022/04/14 09:02:21;;;;;;;44.70;36.43;;;20.70;99.90;;;;;;2614020;47;21081;-77
2022/04/14 09:04:49;;;;;;;40.17;34.83;;;21.00;99.90;;;;;;2614362;54;20151;-77
2022/04/14 09:07:15;;;;;;;30.33;27.13;;;20.70;99.90;;;;;;2614542;54;20410;-77
2022/04/14 09:09:41;;;;;;;29.47;26.43;;;19.90;99.10;;;;;;2614245;54;20421;-76
2022/04/14 09:12:08;;;;;;;37.33;32.70;;;19.20;99.90;;;;;;2614261;47;20422;-77
2022/04/14 09:14:34;;;;;;;40.60;30.97;;;19.10;99.90;;;;;;2614495;47;20422;-77
2022/04/14 09:17:07;;;;;;;33.40;28.80;;;19.80;99.90;;;;;;2614435;47;20414;-77
2022/04/14 09:19:35;;;;;;;32.83;26.83;;;20.00;99.90;;;;;;2613940;51;20419;-77
2022/04/14 09:22:04;;;;;;;38.80;31.10;;;20.40;93.70;;;;;;2615060;54;20425;-77
2022/04/14 09:24:50;;;;;;;32.13;28.70;;;19.80;96.00;;;;;;2614636;54;20404;-78
2022/04/14 09:27:32;;;;;;;31.23;27.70;;;19.80;95.10;;;;;;2614704;54;20414;-77
2022/04/14 09:30:03;;;;;;;28.33;24.60;;;20.20;93.10;;;;;;2614787;47;20445;-77
2022/04/14 09:32:32;;;;;;;32.97;29.03;;;20.70;72.70;;;;;;2614259;47;20415;-77
2022/04/14 09:35:04;;;;;;;33.33;29.57;;;21.00;74.90;;;;;;2614678;54;20419;-76
2022/04/14 09:37:31;;;;;;;33.63;29.07;;;21.10;76.80;;;;;;2614464;47;20439;-75
2022/04/14 09:40:08;;;;;;;36.93;32.97;;;21.20;77.10;;;;;;2614559;54;20464;-75
2022/04/14 09:42:49;;;;;;;38.20;31.07;;;21.50;68.20;;;;;;2614222;54;20396;-76
2022/04/14 09:45:23;;;;;;;34.67;31.10;;;21.50;65.30;;;;;;2613624;47;20895;-76
2022/04/14 09:47:50;;;;;;;33.07;29.50;;;21.50;64.70;;;;;;2614362;54;21115;-76
2022/04/14 09:50:32;;;;;;;35.80;32.27;;;21.70;57.60;;;;;;2614742;54;20402;-76
2022/04/14 09:53:13;;;;;;;35.67;31.87;;;21.30;56.40;;;;;;2614622;54;20442;-76
2022/04/14 09:55:51;;;;;;;35.47;30.73;;;21.20;60.10;;;;;;2614218;46;20479;-77
2022/04/14 09:58:19;;;;;;;32.80;29.40;;;21.70;55.80;;;;;;2614417;54;20446;-77
2022/04/14 10:00:47;;;;;;;32.87;29.73;;;22.10;51.10;;;;;;2613644;47;20959;-76
2022/04/14 10:03:21;;;;;;;31.60;28.47;;;22.20;44.60;;;;;;2614203;54;20432;-77
2022/04/14 10:05:49;;;;;;;33.93;30.37;;;22.50;42.30;;;;;;2613871;47;20423;-77
2022/04/14 10:08:16;;;;;;;31.67;28.67;;;22.20;38.50;;;;;;2614397;47;20416;-76
2022/04/14 10:10:46;;;;;;;36.70;31.77;;;21.60;43.40;;;;;;2613763;54;20402;-78
2022/04/14 10:13:14;;;;;;;34.80;30.60;;;21.70;41.60;;;;;;2614175;54;20479;-77
2022/04/14 10:15:46;;;;;;;34.30;30.70;;;22.10;38.10;;;;;;2613954;46;20422;-77
2022/04/14 10:18:13;;;;;;;31.57;28.47;;;21.90;35.40;;;;;;2613813;47;20428;-76
2022/04/14 10:20:42;;;;;;;30.93;27.93;;;21.30;40.60;;;;;;2614513;54;20469;-76
2022/04/14 10:23:10;;;;;;;33.57;27.93;;;21.00;39.10;;;;;;2613772;54;20401;-76
2022/04/14 10:25:38;;;;;;;32.40;28.83;;;20.20;42.70;;;;;;2614183;47;20423;-77
2022/04/14 10:28:13;;;;;;;31.37;27.27;;;19.70;49.20;;;;;;2614011;54;20394;-77
2022/04/14 10:30:49;;;;;;;29.27;26.30;;;19.50;56.20;;;;;;2613704;54;20461;-76
2022/04/14 10:33:17;;;;;;;28.30;25.40;;;20.10;51.90;;;;;;2613684;54;20505;-76
2022/04/14 10:35:43;;;;;;;28.37;25.57;;;21.00;36.30;;;;;;2613805;54;20399;-76
2022/04/14 10:38:19;;;;;;;28.13;25.00;;;21.40;38.60;;;;;;2613726;47;20446;-77
2022/04/14 10:41:00;;;;;;;19.43;17.43;;;22.30;32.80;;;;;;2613515;54;20990;-76
2022/04/14 10:43:26;;;;;;;20.50;18.53;;;23.00;19.60;;;;;;2614301;54;20962;-77
2022/04/14 10:45:53;;;;;;;19.57;16.30;;;22.70;17.10;;;;;;2613739;54;20431;-76
2022/04/14 10:48:33;;;;;;;16.70;15.20;;;22.50;18.00;;;;;;2613744;54;20433;-76
2022/04/14 10:51:29;;;;;;;18.87;16.93;;;22.70;15.40;;;;;;2614331;39;20813;-76
2022/04/14 10:53:59;;;;;;;17.90;16.33;;;23.30;15.10;;;;;;2614936;39;20816;-76
2022/04/14 10:56:34;;;;;;;19.43;17.73;;;23.20;14.80;;;;;;2613838;47;20411;-77
2022/04/14 10:59:11;;;;;;;19.20;17.43;;;23.20;14.40;;;;;;2613941;47;20538;-76
2022/04/14 11:01:50;;;;;;;22.30;20.17;;;23.00;13.10;;;;;;2613834;54;20414;-77
2022/04/14 11:04:26;;;;;;;23.80;21.63;;;22.90;14.80;;;;;;2614065;54;20432;-76
2022/04/14 11:06:57;;;;;;;18.53;17.03;;;22.90;17.70;;;;;;2614320;39;20910;-77
2022/04/14 11:09:58;;;;;;;20.70;18.90;;;23.20;12.40;;;;;;2613791;54;20951;-76
2022/04/14 11:12:44;;;;;;;19.83;18.07;;;23.10;12.70;;;;;;2612764;54;20403;-77
2022/04/14 11:15:12;;;;;;;19.33;17.53;;;22.50;15.00;;;;;;2614172;39;20780;-76
2022/04/14 11:17:40;;;;;;;18.10;16.40;;;22.00;18.10;;;;;;2614013;46;20551;-76
2022/04/14 11:20:15;;;;;;;18.10;16.23;;;21.70;15.80;;;;;;2613985;46;20406;-76
2022/04/14 11:23:07;;;;;;;17.40;15.70;;;21.00;18.40;;;;;;2613591;54;20408;-76
2022/04/14 11:26:00;;;;;;;16.57;15.00;;;20.70;19.40;;;;;;2613707;54;20468;-76
2022/04/14 11:28:31;;;;;;;14.60;13.30;;;20.40;20.30;;;;;;2614351;39;20849;-76
2022/04/14 11:31:03;;;;;;;14.00;12.67;;;20.30;21.70;;;;;;2613967;39;20922;-77
2022/04/14 11:33:31;;;;;;;17.37;15.80;;;20.10;23.60;;;;;;2614073;47;21031;-76
2022/04/14 11:36:10;;;;;;;19.07;17.27;;;20.00;23.60;;;;;;2613916;54;20709;-77
2022/04/14 11:38:58;;;;;;;18.40;16.63;;;19.90;25.70;;;;;;2612818;46;20395;-77
2022/04/14 11:41:49;;;;;;;19.07;17.27;;;20.00;24.30;;;;;;2613220;54;20417;-77
2022/04/14 11:44:19;;;;;;;16.90;15.20;;;20.00;26.30;;;;;;2613581;47;20437;-78
2022/04/14 11:46:50;;;;;;;11.20;10.23;;;19.80;23.60;;;;;;2613072;47;20969;-78
2022/04/14 11:49:19;;;;;;;11.50;10.53;;;19.70;19.90;;;;;;2614173;47;20414;-77
2022/04/14 11:51:47;;;;;;;12.33;11.27;;;19.50;20.40;;;;;;2615008;54;20426;-77
2022/04/14 11:54:19;;;;;;;15.90;14.60;;;19.50;23.60;;;;;;2615515;39;20812;-77
2022/04/14 11:56:50;;;;;;;17.57;15.63;;;19.50;24.50;;;;;;2614068;47;20447;-77
2022/04/14 11:59:36;;;;;;;15.43;14.10;;;20.00;25.30;;;;;;2613541;47;20447;-76
2022/04/14 12:02:15;;;;;;;18.27;16.60;;;21.00;18.40;;;;;;2614224;47;20436;-76
2022/04/14 12:04:49;;;;;;;17.00;15.60;;;21.00;19.20;;;;;;2614605;54;20475;-76
2022/04/14 12:07:16;;;;;;;15.50;14.20;;;21.50;18.00;;;;;;2615580;54;20419;-76
2022/04/14 12:09:43;;;;;;;13.20;12.17;;;21.80;14.20;;;;;;2614635;54;20406;-76
2022/04/14 12:12:14;;;;;;;12.67;11.57;;;22.00;12.70;;;;;;2614917;39;20824;-76
2022/04/14 12:14:48;;;;;;;10.60;9.80;;;22.10;12.10;;;;;;2614762;54;20430;-76
2022/04/14 12:17:22;;;;;;;8.80;8.00;;;22.30;11.10;;;;;;2614370;54;20408;-78
2022/04/14 12:19:53;;;;;;;8.60;7.87;;;22.40;8.50;;;;;;2614654;54;20841;-77
2022/04/14 12:22:20;;;;;;;14.67;13.20;;;22.40;7.80;;;;;;2614433;47;20413;-77
2022/04/14 12:24:52;;;;;;;12.60;11.60;;;22.50;8.00;;;;;;2614421;46;20412;-77
2022/04/14 12:27:27;;;;;;;12.10;11.20;;;22.50;9.40;;;;;;2614471;54;20540;-77
2022/04/14 12:30:02;;;;;;;11.43;10.50;;;22.80;6.70;;;;;;2615233;54;20510;-77
2022/04/14 12:32:29;;;;;;;9.60;8.90;;;22.20;7.30;;;;;;2614561;54;20434;-77
2022/04/14 12:34:56;;;;;;;8.97;8.27;;;21.50;8.80;;;;;;2614932;54;20966;-77
2022/04/14 12:37:33;;;;;;;11.30;10.30;;;21.10;11.40;;;;;;2614480;54;20557;-77